createdAt,value
2017-02-19T00:00:38.139Z,1018.5
2017-02-19T00:01:38.148Z,1018.53
2017-02-19T00:02:38.152Z,1018.48
2017-02-19T00:03:38.159Z,1018.44
2017-02-19T00:04:38.164Z,1018.41
2017-02-19T00:05:38.168Z,1018.41
2017-02-19T00:06:38.176Z,1018.38
2017-02-19T00:07:38.183Z,1018.36
2017-02-19T00:08:38.188Z,1018.34
2017-02-19T00:09:38.193Z,1018.38
2017-02-19T00:10:38.199Z,1018.34
2017-02-19T00:11:38.457Z,1018.31
2017-02-19T00:12:38.210Z,1018.32
2017-02-19T00:13:38.271Z,1018.35
2017-02-19T00:14:38.273Z,1018.37
2017-02-19T00:15:38.231Z,1018.33
2017-02-19T00:16:38.284Z,1018.37
2017-02-19T00:17:38.241Z,1018.33
2017-02-19T00:18:38.246Z,1018.37
2017-02-19T00:19:38.254Z,1018.35
2017-02-19T00:20:38.257Z,1018.36
2017-02-19T00:21:38.263Z,1018.31
2017-02-19T00:22:38.269Z,1018.34
2017-02-19T00:23:38.327Z,1018.32
2017-02-19T00:24:38.283Z,1018.26
2017-02-19T00:25:38.287Z,1018.31
2017-02-19T00:26:38.295Z,1018.25
2017-02-19T00:27:38.299Z,1018.27
2017-02-19T00:28:38.353Z,1018.27
2017-02-19T00:29:38.310Z,1018.21
2017-02-19T00:30:38.318Z,1018.21
2017-02-19T00:31:38.323Z,1018.2
2017-02-19T00:32:38.328Z,1018.14
2017-02-19T00:33:38.335Z,1018.18
2017-02-19T00:34:38.340Z,1018.18
2017-02-19T00:35:38.345Z,1018.19
2017-02-19T00:36:38.351Z,1018.18
2017-02-19T00:37:38.358Z,1018.12
2017-02-19T00:38:38.363Z,1018.17
2017-02-19T00:39:38.371Z,1018.14
2017-02-19T00:40:38.375Z,1018.14
2017-02-19T00:41:38.431Z,1018.15
2017-02-19T00:42:38.386Z,1018.13
2017-02-19T00:43:38.392Z,1018.09
2017-02-19T00:44:38.400Z,1018.12
2017-02-19T00:45:38.406Z,1018.11
2017-02-19T00:46:38.410Z,1018.06
2017-02-19T00:47:38.416Z,1018.15
2017-02-19T00:48:38.473Z,1018.15
2017-02-19T00:49:38.428Z,1018.1
2017-02-19T00:50:38.432Z,1018.1
2017-02-19T00:51:38.438Z,1018.14
2017-02-19T00:52:38.446Z,1018.12
2017-02-19T00:53:38.450Z,1018.14
2017-02-19T00:54:38.506Z,1018.17
2017-02-19T00:55:38.462Z,1018.22
2017-02-19T00:56:38.469Z,1018.2
2017-02-19T00:57:38.472Z,1018.19
2017-02-19T00:58:38.479Z,1018.19
2017-02-19T00:59:38.487Z,1018.18
2017-02-19T01:00:38.491Z,1018.2
2017-02-19T01:01:38.498Z,1018.16
2017-02-19T01:02:38.505Z,1018.09
2017-02-19T01:03:38.509Z,1018.07
2017-02-19T01:04:38.564Z,1018.12
2017-02-19T01:05:38.522Z,1018.06
2017-02-19T01:06:38.528Z,1018.09
2017-02-19T01:07:38.535Z,1018.08
2017-02-19T01:08:38.540Z,1018.06
2017-02-19T01:09:38.595Z,1018.02
2017-02-19T01:10:38.600Z,1018.01
2017-02-19T01:11:38.556Z,1018
2017-02-19T01:12:38.560Z,1017.94
2017-02-19T01:13:38.568Z,1018.03
2017-02-19T01:14:38.575Z,1018.02
2017-02-19T01:15:38.579Z,1018.05
2017-02-19T01:16:38.586Z,1018.05
2017-02-19T01:17:38.592Z,1018.04
2017-02-19T01:18:38.595Z,1018
2017-02-19T01:19:38.602Z,1018
2017-02-19T01:20:38.606Z,1017.99
2017-02-19T01:21:38.664Z,1017.93
2017-02-19T01:22:38.620Z,1017.99
2017-02-19T01:23:38.627Z,1018.02
2017-02-19T01:24:38.633Z,1017.99
2017-02-19T01:25:38.637Z,1017.98
2017-02-19T01:26:38.643Z,1017.95
2017-02-19T01:27:38.699Z,1017.92
2017-02-19T01:28:38.654Z,1017.93
2017-02-19T01:29:38.660Z,1017.91
2017-02-19T01:30:38.666Z,1017.86
2017-02-19T01:31:38.673Z,1017.87
2017-02-19T01:32:38.680Z,1017.85
2017-02-19T01:33:38.684Z,1017.85
2017-02-19T01:34:38.706Z,1017.85
2017-02-19T01:35:38.696Z,1017.79
2017-02-19T01:36:38.702Z,1017.8
2017-02-19T01:37:38.709Z,1017.77
2017-02-19T01:38:38.782Z,1017.71
2017-02-19T01:39:38.770Z,1017.7
2017-02-19T01:40:38.725Z,1017.69
2017-02-19T01:41:38.782Z,1017.68
2017-02-19T01:42:38.737Z,1017.7
2017-02-19T01:43:38.744Z,1017.73
2017-02-19T01:44:38.799Z,1017.72
2017-02-19T01:45:38.755Z,1017.77
2017-02-19T01:46:38.761Z,1017.71
2017-02-19T01:47:38.766Z,1017.7
2017-02-19T01:48:38.773Z,1017.7
2017-02-19T01:49:38.778Z,1017.67
2017-02-19T01:50:38.787Z,1017.68
2017-02-19T01:51:38.794Z,1017.69
2017-02-19T01:52:38.797Z,1017.7
2017-02-19T01:53:38.802Z,1017.69
2017-02-19T01:54:38.809Z,1017.69
2017-02-19T01:55:38.814Z,1017.68
2017-02-19T01:56:38.820Z,1017.76
2017-02-19T01:57:38.827Z,1017.75
2017-02-19T01:58:38.832Z,1017.75
2017-02-19T01:59:38.838Z,1017.72
2017-02-19T02:00:38.844Z,1017.74
2017-02-19T02:01:38.850Z,1017.66
2017-02-19T02:02:38.856Z,1017.69
2017-02-19T02:03:38.909Z,1017.64
2017-02-19T02:04:38.866Z,1017.62
2017-02-19T02:05:38.874Z,1017.63
2017-02-19T02:06:38.879Z,1017.59
2017-02-19T02:07:38.885Z,1017.55
2017-02-19T02:08:38.891Z,1017.55
2017-02-19T02:09:38.895Z,1017.47
2017-02-19T02:10:38.902Z,1017.47
2017-02-19T02:11:38.958Z,1017.41
2017-02-19T02:12:38.915Z,1017.47
2017-02-19T02:13:40.171Z,1017.43
2017-02-19T02:14:38.924Z,1017.4
2017-02-19T02:15:38.932Z,1017.46
2017-02-19T02:16:38.991Z,1017.45
2017-02-19T02:17:38.946Z,1017.45
2017-02-19T02:18:38.952Z,1017.43
2017-02-19T02:19:38.954Z,1017.48
2017-02-19T02:20:39.010Z,1017.39
2017-02-19T02:21:38.966Z,1017.4
2017-02-19T02:22:38.973Z,1017.36
2017-02-19T02:23:38.979Z,1017.35
2017-02-19T02:24:38.985Z,1017.28
2017-02-19T02:25:38.991Z,1017.28
2017-02-19T02:26:38.997Z,1017.25
2017-02-19T02:27:39.052Z,1017.2
2017-02-19T02:28:39.008Z,1017.19
2017-02-19T02:29:39.013Z,1017.17
2017-02-19T02:30:39.071Z,1017.17
2017-02-19T02:31:39.075Z,1017.16
2017-02-19T02:32:39.031Z,1017.15
2017-02-19T02:33:39.036Z,1017.2
2017-02-19T02:34:39.044Z,1017.15
2017-02-19T02:35:39.098Z,1017.16
2017-02-19T02:36:39.056Z,1017.18
2017-02-19T02:37:39.062Z,1017.18
2017-02-19T02:38:39.067Z,1017.15
2017-02-19T02:39:39.123Z,1017.15
2017-02-19T02:40:39.078Z,1017.13
2017-02-19T02:41:39.135Z,1017.04
2017-02-19T02:42:39.088Z,1017.04
2017-02-19T02:43:39.095Z,1017
2017-02-19T02:44:39.103Z,1016.98
2017-02-19T02:45:39.113Z,1016.91
2017-02-19T02:46:39.113Z,1016.9
2017-02-19T02:47:39.119Z,1016.91
2017-02-19T02:48:39.126Z,1016.94
2017-02-19T02:49:39.131Z,1017
2017-02-19T02:50:39.137Z,1016.93
2017-02-19T02:51:39.142Z,1016.96
2017-02-19T02:52:39.148Z,1016.95
2017-02-19T02:53:39.154Z,1016.89
2017-02-19T02:54:39.160Z,1016.88
2017-02-19T02:55:39.167Z,1016.87
2017-02-19T02:56:39.171Z,1016.92
2017-02-19T02:57:39.177Z,1016.92
2017-02-19T02:58:39.183Z,1016.92
2017-02-19T02:59:39.189Z,1016.93
2017-02-19T03:00:39.201Z,1016.9
2017-02-19T03:01:39.202Z,1016.9
2017-02-19T03:02:39.208Z,1016.93
2017-02-19T03:03:39.213Z,1016.89
2017-02-19T03:04:39.218Z,1016.89
2017-02-19T03:05:39.225Z,1016.86
2017-02-19T03:06:39.230Z,1016.87
2017-02-19T03:07:39.237Z,1016.89
2017-02-19T03:08:39.240Z,1016.86
2017-02-19T03:09:39.249Z,1016.86
2017-02-19T03:10:39.253Z,1016.83
2017-02-19T03:11:39.261Z,1016.8
2017-02-19T03:12:39.265Z,1016.76
2017-02-19T03:13:39.273Z,1016.74
2017-02-19T03:14:39.279Z,1016.79
2017-02-19T03:15:39.281Z,1016.81
2017-02-19T03:16:39.340Z,1016.81
2017-02-19T03:17:39.295Z,1016.82
2017-02-19T03:18:39.302Z,1016.8
2017-02-19T03:19:39.306Z,1016.86
2017-02-19T03:20:39.313Z,1016.86
2017-02-19T03:21:39.368Z,1016.83
2017-02-19T03:22:39.376Z,1016.85
2017-02-19T03:23:39.380Z,1016.88
2017-02-19T03:24:39.339Z,1016.83
2017-02-19T03:25:39.343Z,1016.81
2017-02-19T03:26:39.349Z,1016.88
2017-02-19T03:27:39.404Z,1016.82
2017-02-19T03:28:39.361Z,1016.78
2017-02-19T03:29:39.367Z,1016.74
2017-02-19T03:30:39.370Z,1016.74
2017-02-19T03:31:39.379Z,1016.8
2017-02-19T03:32:39.384Z,1016.75
2017-02-19T03:33:39.389Z,1016.71
2017-02-19T03:34:39.396Z,1016.66
2017-02-19T03:35:39.401Z,1016.75
2017-02-19T03:36:39.459Z,1016.72
2017-02-19T03:37:39.413Z,1016.7
2017-02-19T03:38:39.419Z,1016.7
2017-02-19T03:39:39.475Z,1016.69
2017-02-19T03:40:39.432Z,1016.78
2017-02-19T03:41:39.438Z,1016.72
2017-02-19T03:42:39.492Z,1016.72
2017-02-19T03:43:39.450Z,1016.74
2017-02-19T03:44:39.456Z,1016.66
2017-02-19T03:45:39.461Z,1016.7
2017-02-19T03:46:39.466Z,1016.67
2017-02-19T03:47:39.472Z,1016.68
2017-02-19T03:48:39.528Z,1016.68
2017-02-19T03:49:39.484Z,1016.67
2017-02-19T03:50:39.490Z,1016.69
2017-02-19T03:51:39.496Z,1016.72
2017-02-19T03:52:39.501Z,1016.75
2017-02-19T03:53:39.508Z,1016.75
2017-02-19T03:54:39.564Z,1016.74
2017-02-19T03:55:39.569Z,1016.75
2017-02-19T03:56:39.524Z,1016.77
2017-02-19T03:57:39.532Z,1016.74
2017-02-19T03:58:39.538Z,1016.77
2017-02-19T03:59:39.594Z,1016.81
2017-02-19T04:00:39.550Z,1016.78
2017-02-19T04:01:39.555Z,1016.8
2017-02-19T04:02:39.612Z,1016.78
2017-02-19T04:03:39.567Z,1016.74
2017-02-19T04:04:39.573Z,1016.71
2017-02-19T04:05:39.629Z,1016.71
2017-02-19T04:06:39.586Z,1016.78
2017-02-19T04:07:39.590Z,1016.72
2017-02-19T04:08:39.647Z,1016.73
2017-02-19T04:09:39.604Z,1016.72
2017-02-19T04:10:39.608Z,1016.76
2017-02-19T04:11:39.614Z,1016.73
2017-02-19T04:12:39.620Z,1016.74
2017-02-19T04:14:39.833Z,1016.75
2017-02-19T04:15:39.688Z,1016.73
2017-02-19T04:16:39.643Z,1016.71
2017-02-19T04:17:39.650Z,1016.71
2017-02-19T04:18:39.656Z,1016.72
2017-02-19T04:19:39.713Z,1016.69
2017-02-19T04:20:39.668Z,1016.66
2017-02-19T04:21:39.723Z,1016.67
2017-02-19T04:22:39.679Z,1016.63
2017-02-19T04:23:39.686Z,1016.59
2017-02-19T04:24:39.692Z,1016.6
2017-02-19T04:25:39.697Z,1016.57
2017-02-19T04:26:39.732Z,1016.58
2017-02-19T04:27:39.708Z,1016.53
2017-02-19T04:28:39.714Z,1016.55
2017-02-19T04:29:39.720Z,1016.56
2017-02-19T04:30:39.725Z,1016.58
2017-02-19T04:31:39.733Z,1016.61
2017-02-19T04:32:39.738Z,1016.63
2017-02-19T04:33:39.746Z,1016.57
2017-02-19T04:34:39.800Z,1016.56
2017-02-19T04:35:39.756Z,1016.59
2017-02-19T04:36:39.762Z,1016.55
2017-02-19T04:37:39.767Z,1016.59
2017-02-19T04:38:39.774Z,1016.61
2017-02-19T04:39:39.779Z,1016.54
2017-02-19T04:40:39.786Z,1016.51
2017-02-19T04:41:39.791Z,1016.52
2017-02-19T04:42:39.797Z,1016.45
2017-02-19T04:43:39.852Z,1016.43
2017-02-19T04:44:39.808Z,1016.39
2017-02-19T04:45:39.815Z,1016.39
2017-02-19T04:46:39.870Z,1016.39
2017-02-19T04:47:39.826Z,1016.38
2017-02-19T04:48:39.832Z,1016.39
2017-02-19T04:49:39.837Z,1016.34
2017-02-19T04:50:39.843Z,1016.32
2017-02-19T04:51:39.898Z,1016.37
2017-02-19T04:52:39.856Z,1016.31
2017-02-19T04:53:39.859Z,1016.28
2017-02-19T04:54:39.866Z,1016.31
2017-02-19T04:55:39.872Z,1016.3
2017-02-19T04:56:39.878Z,1016.31
2017-02-19T04:57:39.885Z,1016.31
2017-02-19T04:58:39.891Z,1016.28
2017-02-19T04:59:39.897Z,1016.32
2017-02-19T05:00:39.903Z,1016.28
2017-02-19T05:01:39.908Z,1016.24
2017-02-19T05:02:39.914Z,1016.24
2017-02-19T05:03:39.922Z,1016.24
2017-02-19T05:04:39.926Z,1016.25
2017-02-19T05:05:39.932Z,1016.16
2017-02-19T05:06:39.937Z,1016.19
2017-02-19T05:07:39.945Z,1016.17
2017-02-19T05:08:39.947Z,1016.23
2017-02-19T05:09:39.954Z,1016.18
2017-02-19T05:10:40.012Z,1016.2
2017-02-19T05:11:39.968Z,1016.24
2017-02-19T05:12:39.972Z,1016.19
2017-02-19T05:13:40.028Z,1016.17
2017-02-19T05:14:39.985Z,1016.27
2017-02-19T05:15:39.992Z,1016.26
2017-02-19T05:16:39.994Z,1016.21
2017-02-19T05:17:40.001Z,1016.23
2017-02-19T05:18:40.008Z,1016.22
2017-02-19T05:19:40.063Z,1016.25
2017-02-19T05:20:40.020Z,1016.25
2017-02-19T05:21:40.324Z,1016.2
2017-02-19T05:22:40.080Z,1016.19
2017-02-19T05:23:40.036Z,1016.25
2017-02-19T05:24:40.043Z,1016.22
2017-02-19T05:25:40.048Z,1016.21
2017-02-19T05:26:40.054Z,1016.21
2017-02-19T05:27:40.060Z,1016.23
2017-02-19T05:28:40.064Z,1016.17
2017-02-19T05:29:40.074Z,1016.21
2017-02-19T05:30:40.087Z,1016.16
2017-02-19T05:31:40.083Z,1016.21
2017-02-19T05:32:40.118Z,1016.16
2017-02-19T05:33:40.095Z,1016.17
2017-02-19T05:34:40.103Z,1016.17
2017-02-19T05:35:40.105Z,1016.15
2017-02-19T05:36:40.110Z,1016.13
2017-02-19T05:37:40.168Z,1016.14
2017-02-19T05:38:40.174Z,1016.13
2017-02-19T05:39:40.180Z,1016.11
2017-02-19T05:40:40.135Z,1016.14
2017-02-19T05:41:40.140Z,1016.08
2017-02-19T05:42:40.147Z,1016.01
2017-02-19T05:43:40.203Z,1015.97
2017-02-19T05:44:40.159Z,1015.95
2017-02-19T05:45:40.214Z,1015.97
2017-02-19T05:46:40.219Z,1015.95
2017-02-19T05:47:40.174Z,1015.92
2017-02-19T05:48:40.183Z,1015.94
2017-02-19T05:49:40.187Z,1016.01
2017-02-19T05:50:40.244Z,1016.07
2017-02-19T05:51:40.200Z,1016.06
2017-02-19T05:52:40.204Z,1016.05
2017-02-19T05:53:40.209Z,1016.06
2017-02-19T05:54:40.268Z,1016.12
2017-02-19T05:55:40.223Z,1016.12
2017-02-19T05:56:40.276Z,1016.09
2017-02-19T05:57:40.234Z,1016.1
2017-02-19T05:58:40.240Z,1016.05
2017-02-19T05:59:40.248Z,1016.03
2017-02-19T06:00:40.252Z,1016.09
2017-02-19T06:01:40.257Z,1016.02
2017-02-19T06:02:40.264Z,1016.11
2017-02-19T06:03:40.268Z,1016.05
2017-02-19T06:04:40.276Z,1016.04
2017-02-19T06:05:40.331Z,1015.98
2017-02-19T06:06:40.338Z,1015.96
2017-02-19T06:07:40.292Z,1015.98
2017-02-19T06:08:40.298Z,1015.97
2017-02-19T06:09:40.304Z,1015.93
2017-02-19T06:10:40.311Z,1015.91
2017-02-19T06:11:40.315Z,1015.86
2017-02-19T06:12:40.321Z,1015.82
2017-02-19T06:13:40.328Z,1015.81
2017-02-19T06:14:40.332Z,1015.83
2017-02-19T06:15:40.338Z,1015.84
2017-02-19T06:16:40.345Z,1015.82
2017-02-19T06:17:40.350Z,1015.82
2017-02-19T06:18:40.356Z,1015.75
2017-02-19T06:19:40.361Z,1015.76
2017-02-19T06:20:40.367Z,1015.79
2017-02-19T06:21:40.423Z,1015.81
2017-02-19T06:22:40.379Z,1015.8
2017-02-19T06:23:40.386Z,1015.81
2017-02-19T06:24:40.390Z,1015.83
2017-02-19T06:25:40.446Z,1015.81
2017-02-19T06:26:40.451Z,1015.82
2017-02-19T06:27:40.408Z,1015.85
2017-02-19T06:28:40.414Z,1015.83
2017-02-19T06:29:40.420Z,1015.84
2017-02-19T06:30:40.426Z,1015.84
2017-02-19T06:31:40.432Z,1015.89
2017-02-19T06:32:40.437Z,1015.84
2017-02-19T06:33:40.444Z,1015.8
2017-02-19T06:34:40.450Z,1015.84
2017-02-19T06:35:40.507Z,1015.77
2017-02-19T06:36:40.460Z,1015.77
2017-02-19T06:37:40.468Z,1015.81
2017-02-19T06:38:40.474Z,1015.84
2017-02-19T06:39:40.480Z,1015.83
2017-02-19T06:40:40.483Z,1015.85
2017-02-19T06:41:40.491Z,1015.89
2017-02-19T06:42:40.496Z,1015.89
2017-02-19T06:43:40.502Z,1015.86
2017-02-19T06:44:40.508Z,1015.85
2017-02-19T06:45:40.514Z,1015.9
2017-02-19T06:46:40.520Z,1015.92
2017-02-19T06:47:40.524Z,1015.89
2017-02-19T06:48:40.530Z,1015.88
2017-02-19T06:49:40.586Z,1015.86
2017-02-19T06:50:40.593Z,1015.79
2017-02-19T06:51:40.548Z,1015.81
2017-02-19T06:52:40.553Z,1015.81
2017-02-19T06:53:40.559Z,1015.78
2017-02-19T06:54:40.565Z,1015.73
2017-02-19T06:55:40.572Z,1015.72
2017-02-19T06:56:40.578Z,1015.78
2017-02-19T06:57:40.585Z,1015.81
2017-02-19T06:58:40.589Z,1015.79
2017-02-19T06:59:40.595Z,1015.72
2017-02-19T07:00:40.600Z,1015.74
2017-02-19T07:01:40.607Z,1015.82
2017-02-19T07:02:40.611Z,1015.85
2017-02-19T07:03:40.619Z,1015.8
2017-02-19T07:04:40.625Z,1015.87
2017-02-19T07:05:40.677Z,1015.86
2017-02-19T07:06:40.635Z,1015.84
2017-02-19T07:07:40.641Z,1015.86
2017-02-19T07:08:40.647Z,1015.89
2017-02-19T07:09:40.752Z,1016
2017-02-19T07:10:40.708Z,1016.01
2017-02-19T07:11:40.667Z,1015.91
2017-02-19T07:12:40.673Z,1015.93
2017-02-19T07:13:40.727Z,1015.97
2017-02-19T07:14:40.688Z,1016.02
2017-02-19T07:15:40.688Z,1015.98
2017-02-19T07:16:40.693Z,1015.91
2017-02-19T07:17:40.752Z,1016.06
2017-02-19T07:18:40.707Z,1016.13
2017-02-19T07:19:40.711Z,1016.07
2017-02-19T07:20:40.717Z,1016.05
2017-02-19T07:21:40.721Z,1016.06
2017-02-19T07:22:40.731Z,1016.01
2017-02-19T07:23:40.735Z,1016.08
2017-02-19T07:24:40.790Z,1016.09
2017-02-19T07:25:40.745Z,1016.06
2017-02-19T07:26:40.752Z,1016.09
2017-02-19T07:27:40.756Z,1016.04
2017-02-19T07:28:40.764Z,1016.12
2017-02-19T07:29:40.768Z,1016.1
2017-02-19T07:30:40.776Z,1016.15
2017-02-19T07:31:40.830Z,1016.1
2017-02-19T07:32:40.787Z,1016.11
2017-02-19T07:33:40.794Z,1016.09
2017-02-19T07:34:40.801Z,1016.05
2017-02-19T07:35:40.807Z,1016.09
2017-02-19T07:36:40.811Z,1016.06
2017-02-19T07:37:40.817Z,1016.05
2017-02-19T07:38:40.823Z,1016.02
2017-02-19T07:39:40.830Z,1015.97
2017-02-19T07:40:40.834Z,1016
2017-02-19T07:41:40.841Z,1016.02
2017-02-19T07:42:40.846Z,1015.96
2017-02-19T07:43:40.901Z,1015.95
2017-02-19T07:44:40.858Z,1015.99
2017-02-19T07:45:40.863Z,1015.99
2017-02-19T07:46:40.869Z,1016.02
2017-02-19T07:47:40.876Z,1016.03
2017-02-19T07:48:40.931Z,1015.99
2017-02-19T07:49:40.911Z,1015.92
2017-02-19T07:50:40.893Z,1015.85
2017-02-19T07:51:40.900Z,1015.95
2017-02-19T07:52:40.906Z,1016.07
2017-02-19T07:53:40.911Z,1015.94
2017-02-19T07:54:40.917Z,1015.93
2017-02-19T07:55:40.922Z,1015.94
2017-02-19T07:56:40.929Z,1015.84
2017-02-19T07:57:40.935Z,1015.93
2017-02-19T07:58:40.991Z,1015.98
2017-02-19T07:59:40.948Z,1015.98
2017-02-19T08:00:40.952Z,1016.01
2017-02-19T08:01:40.961Z,1016.04
2017-02-19T08:02:40.967Z,1015.84
2017-02-19T08:03:40.973Z,1015.91
2017-02-19T08:04:40.978Z,1015.9
2017-02-19T08:05:41.034Z,1015.88
2017-02-19T08:06:40.989Z,1015.86
2017-02-19T08:07:40.996Z,1015.83
2017-02-19T08:08:41.002Z,1015.91
2017-02-19T08:09:41.010Z,1015.94
2017-02-19T08:10:41.017Z,1015.86
2017-02-19T08:11:41.023Z,1015.79
2017-02-19T08:12:41.027Z,1015.81
2017-02-19T08:13:41.084Z,1015.84
2017-02-19T08:14:41.041Z,1015.84
2017-02-19T08:15:41.047Z,1015.84
2017-02-19T08:16:41.056Z,1015.89
2017-02-19T08:17:41.061Z,1015.86
2017-02-19T08:18:41.117Z,1015.85
2017-02-19T08:19:41.122Z,1015.86
2017-02-19T08:20:41.080Z,1015.88
2017-02-19T08:21:41.087Z,1015.86
2017-02-19T08:22:41.091Z,1015.77
2017-02-19T08:23:41.097Z,1015.73
2017-02-19T08:24:41.155Z,1015.77
2017-02-19T08:25:41.112Z,1015.81
2017-02-19T08:26:41.115Z,1015.71
2017-02-19T08:27:41.140Z,1015.81
2017-02-19T08:28:41.131Z,1015.82
2017-02-19T08:29:41.135Z,1015.81
2017-02-19T08:30:41.141Z,1015.88
2017-02-19T08:31:41.146Z,1015.83
2017-02-19T08:32:41.203Z,1015.81
2017-02-19T08:33:41.158Z,1015.81
2017-02-19T08:34:41.166Z,1015.87
2017-02-19T08:35:41.172Z,1015.89
2017-02-19T08:36:41.178Z,1015.83
2017-02-19T08:37:41.184Z,1015.84
2017-02-19T08:38:41.187Z,1015.77
2017-02-19T08:39:41.195Z,1015.79
2017-02-19T08:40:41.200Z,1015.82
2017-02-19T08:41:41.207Z,1015.8
2017-02-19T08:42:41.212Z,1015.76
2017-02-19T08:43:41.221Z,1015.78
2017-02-19T08:44:41.274Z,1015.79
2017-02-19T08:45:41.229Z,1015.88
2017-02-19T08:46:41.234Z,1015.84
2017-02-19T08:47:41.241Z,1015.71
2017-02-19T08:48:41.247Z,1015.73
2017-02-19T08:49:41.253Z,1015.68
2017-02-19T08:50:41.259Z,1015.77
2017-02-19T08:51:41.264Z,1015.84
2017-02-19T08:52:41.271Z,1015.72
2017-02-19T08:53:41.280Z,1015.77
2017-02-19T08:54:41.282Z,1015.72
2017-02-19T08:55:41.287Z,1015.71
2017-02-19T08:56:41.293Z,1015.73
2017-02-19T08:57:41.349Z,1015.7
2017-02-19T08:58:41.356Z,1015.7
2017-02-19T08:59:41.311Z,1015.7
2017-02-19T09:00:41.316Z,1015.66
2017-02-19T09:01:41.322Z,1015.66
2017-02-19T09:02:41.326Z,1015.63
2017-02-19T09:03:41.332Z,1015.63
2017-02-19T09:04:41.339Z,1015.63
2017-02-19T09:05:41.345Z,1015.7
2017-02-19T09:06:41.350Z,1015.67
2017-02-19T09:07:41.356Z,1015.58
2017-02-19T09:08:41.363Z,1015.63
2017-02-19T09:09:41.369Z,1015.62
2017-02-19T09:10:41.373Z,1015.64
2017-02-19T09:11:41.381Z,1015.67
2017-02-19T09:12:41.437Z,1015.68
2017-02-19T09:13:41.441Z,1015.64
2017-02-19T09:14:41.397Z,1015.71
2017-02-19T09:15:41.405Z,1015.72
2017-02-19T09:16:41.411Z,1015.62
2017-02-19T09:17:41.417Z,1015.71
2017-02-19T09:18:41.420Z,1015.77
2017-02-19T09:19:41.428Z,1015.69
2017-02-19T09:20:41.434Z,1015.75
2017-02-19T09:21:41.439Z,1015.77
2017-02-19T09:22:41.446Z,1015.74
2017-02-19T09:23:41.502Z,1015.78
2017-02-19T09:24:41.457Z,1015.74
2017-02-19T09:25:41.462Z,1015.74
2017-02-19T09:26:41.473Z,1015.71
2017-02-19T09:27:41.475Z,1015.71
2017-02-19T09:28:41.480Z,1015.7
2017-02-19T09:29:41.487Z,1015.75
2017-02-19T09:30:41.492Z,1015.8
2017-02-19T09:31:41.499Z,1015.82
2017-02-19T09:32:41.504Z,1015.76
2017-02-19T09:33:41.511Z,1015.8
2017-02-19T09:34:41.516Z,1015.79
2017-02-19T09:35:41.520Z,1015.73
2017-02-19T09:36:41.528Z,1015.75
2017-02-19T09:37:41.584Z,1015.91
2017-02-19T09:38:41.541Z,1015.8
2017-02-19T09:39:41.546Z,1015.69
2017-02-19T09:40:41.551Z,1015.68
2017-02-19T09:41:41.557Z,1015.68
2017-02-19T09:42:41.563Z,1015.68
2017-02-19T09:43:41.619Z,1015.73
2017-02-19T09:44:41.627Z,1015.63
2017-02-19T09:45:41.582Z,1015.65
2017-02-19T09:46:41.586Z,1015.72
2017-02-19T09:47:41.644Z,1015.67
2017-02-19T09:48:41.599Z,1015.65
2017-02-19T09:49:41.606Z,1015.54
2017-02-19T09:50:41.660Z,1015.53
2017-02-19T09:51:41.666Z,1015.55
2017-02-19T09:52:41.622Z,1015.62
2017-02-19T09:53:41.627Z,1015.59
2017-02-19T09:54:41.632Z,1015.59
2017-02-19T09:55:41.641Z,1015.58
2017-02-19T09:56:41.646Z,1015.52
2017-02-19T09:57:41.649Z,1015.58
2017-02-19T09:58:41.656Z,1015.54
2017-02-19T09:59:41.662Z,1015.54
2017-02-19T10:00:41.668Z,1015.54
2017-02-19T10:01:41.674Z,1015.53
2017-02-19T10:02:41.680Z,1015.57
2017-02-19T10:03:41.686Z,1015.58
2017-02-19T10:04:41.741Z,1015.51
2017-02-19T10:05:41.697Z,1015.49
2017-02-19T10:06:41.704Z,1015.47
2017-02-19T10:07:41.708Z,1015.43
2017-02-19T10:08:41.713Z,1015.46
2017-02-19T10:09:41.720Z,1015.37
2017-02-19T10:10:41.727Z,1015.35
2017-02-19T10:11:41.730Z,1015.24
2017-02-19T10:12:41.738Z,1015.26
2017-02-19T10:13:41.794Z,1015.28
2017-02-19T10:14:41.801Z,1015.22
2017-02-19T10:15:41.756Z,1015.22
2017-02-19T10:16:41.759Z,1015.1
2017-02-19T10:17:41.766Z,1015.2
2017-02-19T10:18:41.773Z,1015.2
2017-02-19T10:19:41.828Z,1015.18
2017-02-19T10:20:41.783Z,1015.31
2017-02-19T10:21:41.789Z,1015.3
2017-02-19T10:22:41.846Z,1015.28
2017-02-19T10:23:41.801Z,1015.2
2017-02-19T10:24:41.808Z,1015.32
2017-02-19T10:25:41.813Z,1015.33
2017-02-19T10:26:41.867Z,1015.3
2017-02-19T10:27:41.825Z,1015.35
2017-02-19T10:28:41.830Z,1015.33
2017-02-19T10:29:41.838Z,1015.29
2017-02-19T10:30:41.843Z,1015.28
2017-02-19T10:31:41.849Z,1015.29
2017-02-19T10:32:41.858Z,1015.28
2017-02-19T10:33:41.911Z,1015.23
2017-02-19T10:34:41.866Z,1015.2
2017-02-19T10:35:41.872Z,1015.26
2017-02-19T10:36:41.881Z,1015.22
2017-02-19T10:37:41.884Z,1015.19
2017-02-19T10:38:41.889Z,1015.12
2017-02-19T10:39:41.946Z,1015.1
2017-02-19T10:40:41.901Z,1015.09
2017-02-19T10:41:41.957Z,1015.12
2017-02-19T10:42:41.913Z,1015.14
2017-02-19T10:44:41.926Z,1015.09
2017-02-19T10:45:41.932Z,1015.1
2017-02-19T10:46:41.938Z,1015.07
2017-02-19T10:47:41.994Z,1015.12
2017-02-19T10:48:41.999Z,1015.16
2017-02-19T10:49:41.955Z,1015.12
2017-02-19T10:50:41.961Z,1015.13
2017-02-19T10:51:41.968Z,1015.04
2017-02-19T10:52:41.972Z,1015.11
2017-02-19T10:53:41.985Z,1014.97
2017-02-19T10:54:42.035Z,1014.95
2017-02-19T10:55:41.990Z,1014.92
2017-02-19T10:56:41.996Z,1014.91
2017-02-19T10:57:42.052Z,1014.96
2017-02-19T10:58:42.009Z,1014.92
2017-02-19T10:59:42.015Z,1014.89
2017-02-19T11:00:42.019Z,1014.93
2017-02-19T11:01:42.027Z,1014.91
2017-02-19T11:02:42.032Z,1014.94
2017-02-19T11:03:42.038Z,1014.91
2017-02-19T11:04:42.044Z,1014.87
2017-02-19T11:05:42.051Z,1014.9
2017-02-19T11:06:42.056Z,1014.9
2017-02-19T11:07:42.061Z,1014.96
2017-02-19T11:08:42.068Z,1014.93
2017-02-19T11:09:42.075Z,1014.9
2017-02-19T11:10:42.080Z,1014.9
2017-02-19T11:11:42.085Z,1014.91
2017-02-19T11:12:42.141Z,1014.9
2017-02-19T11:13:42.152Z,1014.87
2017-02-19T11:14:42.102Z,1014.91
2017-02-19T11:15:42.109Z,1014.9
2017-02-19T11:16:42.115Z,1014.81
2017-02-19T11:17:42.121Z,1014.83
2017-02-19T11:18:42.127Z,1014.82
2017-02-19T11:19:42.133Z,1014.87
2017-02-19T11:20:42.189Z,1014.88
2017-02-19T11:21:42.144Z,1014.86
2017-02-19T11:22:42.150Z,1014.82
2017-02-19T11:23:42.156Z,1014.83
2017-02-19T11:24:42.163Z,1014.84
2017-02-19T11:25:42.168Z,1014.85
2017-02-19T11:26:42.173Z,1014.84
2017-02-19T11:27:42.181Z,1014.77
2017-02-19T11:28:42.185Z,1014.82
2017-02-19T11:29:42.190Z,1014.8
2017-02-19T11:30:42.195Z,1014.83
2017-02-19T11:31:42.203Z,1014.8
2017-02-19T11:32:42.207Z,1014.84
2017-02-19T11:33:42.214Z,1014.75
2017-02-19T11:34:42.220Z,1014.85
2017-02-19T11:35:42.225Z,1014.83
2017-02-19T11:36:42.232Z,1014.84
2017-02-19T11:37:42.237Z,1014.82
2017-02-19T11:38:42.292Z,1014.82
2017-02-19T11:39:42.247Z,1014.8
2017-02-19T11:40:42.255Z,1014.78
2017-02-19T11:41:42.258Z,1014.74
2017-02-19T11:42:42.315Z,1014.71
2017-02-19T11:43:42.270Z,1014.73
2017-02-19T11:44:42.325Z,1014.7
2017-02-19T11:45:42.282Z,1014.65
2017-02-19T11:46:42.289Z,1014.69
2017-02-19T11:47:42.293Z,1014.65
2017-02-19T11:48:42.299Z,1014.65
2017-02-19T11:49:42.305Z,1014.65
2017-02-19T11:50:42.312Z,1014.68
2017-02-19T11:51:42.318Z,1014.62
2017-02-19T11:52:42.321Z,1014.61
2017-02-19T11:53:42.329Z,1014.65
2017-02-19T11:54:42.332Z,1014.66
2017-02-19T11:55:42.339Z,1014.65
2017-02-19T11:56:42.345Z,1014.67
2017-02-19T11:57:42.350Z,1014.72
2017-02-19T11:58:42.358Z,1014.7
2017-02-19T11:59:42.363Z,1014.7
2017-02-19T12:00:42.368Z,1014.68
2017-02-19T12:01:42.374Z,1014.68
2017-02-19T12:02:42.379Z,1014.69
2017-02-19T12:03:42.385Z,1014.74
2017-02-19T12:04:42.390Z,1014.68
2017-02-19T12:05:42.395Z,1014.68
2017-02-19T12:06:42.401Z,1014.68
2017-02-19T12:07:42.407Z,1014.66
2017-02-19T12:08:42.412Z,1014.67
2017-02-19T12:09:42.417Z,1014.71
2017-02-19T12:10:42.422Z,1014.69